createdAt,value
2022-12-26T00:00:38.143Z,12.90
2022-12-26T00:01:38.074Z,12.90
2022-12-26T00:02:38.170Z,10.90
2022-12-26T00:03:38.151Z,12.70
2022-12-26T00:04:50.023Z,13.10
2022-12-26T00:05:38.132Z,10.80
2022-12-26T00:06:38.025Z,13.60
2022-12-26T00:07:38.019Z,10.90
2022-12-26T00:08:37.995Z,10.20
2022-12-26T00:09:37.997Z,10.60
2022-12-26T00:10:37.988Z,10.50
2022-12-26T00:11:37.967Z,11.00
2022-12-26T00:12:37.951Z,12.40
2022-12-26T00:13:41.405Z,12.30
2022-12-26T00:14:37.942Z,13.00
2022-12-26T00:15:37.917Z,12.60
2022-12-26T00:16:37.982Z,11.40
2022-12-26T00:17:37.918Z,11.60
2022-12-26T00:18:37.883Z,9.80
2022-12-26T00:19:37.878Z,11.50
2022-12-26T00:20:37.875Z,10.20
2022-12-26T00:21:37.847Z,11.60
2022-12-26T00:22:37.891Z,11.80
2022-12-26T00:23:37.829Z,9.90
2022-12-26T00:24:37.823Z,11.80
2022-12-26T00:25:37.805Z,9.40
2022-12-26T00:26:37.806Z,11.10
2022-12-26T00:27:37.808Z,10.60
2022-12-26T00:28:37.771Z,10.30
2022-12-26T00:29:37.761Z,11.20
2022-12-26T00:30:37.749Z,11.30
2022-12-26T00:31:37.831Z,10.10
2022-12-26T00:32:37.739Z,10.60
2022-12-26T00:33:37.752Z,11.70
2022-12-26T00:34:37.731Z,11.40
2022-12-26T00:35:37.697Z,10.60
2022-12-26T00:36:37.694Z,9.70
2022-12-26T00:37:37.681Z,9.90
2022-12-26T00:38:37.681Z,12.70
2022-12-26T00:39:37.675Z,13.80
2022-12-26T00:40:37.652Z,9.70
2022-12-26T00:41:37.649Z,10.20
2022-12-26T00:42:37.624Z,10.10
2022-12-26T00:43:37.638Z,11.00
2022-12-26T00:44:37.597Z,10.60
2022-12-26T00:45:37.604Z,12.40
2022-12-26T00:46:37.651Z,11.90
2022-12-26T00:47:37.590Z,10.70
2022-12-26T00:48:37.564Z,11.20
2022-12-26T00:50:14.350Z,10.70
2022-12-26T00:50:37.563Z,10.20
2022-12-26T00:51:37.523Z,11.50
2022-12-26T00:52:37.537Z,11.00
2022-12-26T00:53:37.508Z,11.70
2022-12-26T00:54:37.494Z,10.30
2022-12-26T00:55:37.484Z,9.80
2022-12-26T00:56:37.495Z,10.30
2022-12-26T00:57:37.475Z,10.30
2022-12-26T00:58:37.467Z,9.80
2022-12-26T00:59:37.451Z,11.40
2022-12-26T01:00:37.521Z,11.30
2022-12-26T01:01:37.687Z,12.00
2022-12-26T01:02:37.510Z,10.70
2022-12-26T01:03:37.403Z,9.80
2022-12-26T01:04:37.400Z,10.60
2022-12-26T01:05:37.383Z,11.40
2022-12-26T01:06:37.367Z,12.30
2022-12-26T01:08:22.443Z,12.10
2022-12-26T01:08:37.349Z,10.70
2022-12-26T01:09:37.333Z,12.20
2022-12-26T01:10:37.336Z,11.00
2022-12-26T01:11:37.362Z,11.30
2022-12-26T01:12:37.299Z,10.60
2022-12-26T01:13:37.342Z,9.60
2022-12-26T01:14:37.287Z,10.80
2022-12-26T01:15:37.267Z,11.10
2022-12-26T01:16:37.384Z,11.00
2022-12-26T01:17:37.283Z,9.60
2022-12-26T01:18:37.246Z,12.50
2022-12-26T01:19:37.252Z,11.20
2022-12-26T01:20:37.225Z,11.80
2022-12-26T01:21:37.224Z,12.10
2022-12-26T01:22:37.195Z,13.40
2022-12-26T01:23:37.188Z,12.30
2022-12-26T01:24:37.194Z,12.00
2022-12-26T01:25:37.174Z,12.90
2022-12-26T01:26:37.167Z,12.80
2022-12-26T01:27:37.141Z,11.30
2022-12-26T01:28:37.127Z,11.60
2022-12-26T01:29:37.113Z,10.80
2022-12-26T01:30:37.127Z,11.20
2022-12-26T01:31:37.173Z,12.00
2022-12-26T01:32:37.095Z,10.40
2022-12-26T01:33:37.099Z,11.30
2022-12-26T01:34:37.067Z,12.00
2022-12-26T01:35:37.063Z,9.80
2022-12-26T01:36:37.061Z,11.40
2022-12-26T01:37:37.029Z,12.60
2022-12-26T01:38:37.052Z,15.80
2022-12-26T01:39:37.014Z,12.50
2022-12-26T01:40:37.006Z,16.50
2022-12-26T01:41:37.704Z,12.80
2022-12-26T01:42:37.003Z,8.80
2022-12-26T01:43:36.971Z,8.90
2022-12-26T01:44:36.962Z,10.80
2022-12-26T01:45:37.028Z,11.90
2022-12-26T01:46:36.946Z,12.30
2022-12-26T01:47:36.971Z,11.10
2022-12-26T01:48:36.928Z,11.00
2022-12-26T01:49:36.902Z,13.90
2022-12-26T01:50:36.895Z,11.60
2022-12-26T01:51:36.880Z,10.50
2022-12-26T01:52:36.888Z,11.70
2022-12-26T01:53:36.874Z,10.50
2022-12-26T01:54:41.456Z,9.80
2022-12-26T01:55:36.837Z,10.40
2022-12-26T01:56:36.823Z,12.20
2022-12-26T01:57:36.832Z,10.90
2022-12-26T01:58:36.810Z,8.70
2022-12-26T01:59:36.790Z,11.30
2022-12-26T02:00:36.832Z,10.10
2022-12-26T02:01:36.864Z,8.10
2022-12-26T02:02:36.928Z,10.10
2022-12-26T02:03:36.761Z,10.70
2022-12-26T02:04:36.751Z,11.30
2022-12-26T02:05:36.743Z,9.90
2022-12-26T02:06:36.720Z,10.20
2022-12-26T02:07:36.720Z,9.70
2022-12-26T02:08:36.727Z,12.50
2022-12-26T02:09:36.684Z,10.30
2022-12-26T02:10:36.688Z,12.70
2022-12-26T02:11:36.674Z,9.60
2022-12-26T02:12:38.720Z,9.60
2022-12-26T02:13:36.641Z,9.50
2022-12-26T02:14:36.648Z,9.60
2022-12-26T02:15:36.620Z,8.50
2022-12-26T02:16:36.670Z,10.60
2022-12-26T02:17:36.599Z,11.00
2022-12-26T02:18:36.603Z,8.90
2022-12-26T02:19:36.574Z,10.90
2022-12-26T02:20:36.585Z,9.80
2022-12-26T02:21:36.561Z,12.30
2022-12-26T02:22:36.553Z,9.30
2022-12-26T02:23:36.543Z,10.30
2022-12-26T02:24:36.528Z,11.60
2022-12-26T02:25:36.540Z,10.30
2022-12-26T02:26:36.506Z,12.90
2022-12-26T02:27:36.493Z,9.20
2022-12-26T02:28:36.488Z,10.10
2022-12-26T02:29:36.478Z,12.90
2022-12-26T02:30:36.456Z,8.90
2022-12-26T02:31:36.530Z,11.10
2022-12-26T02:32:36.438Z,9.70
2022-12-26T02:33:36.432Z,10.60
2022-12-26T02:34:36.409Z,9.80
2022-12-26T02:35:36.408Z,9.50
2022-12-26T02:36:36.407Z,10.20
2022-12-26T02:37:36.417Z,8.40
2022-12-26T02:38:36.394Z,10.10
2022-12-26T02:39:44.486Z,10.10
2022-12-26T02:40:36.376Z,9.30
2022-12-26T02:41:36.340Z,10.80
2022-12-26T02:42:36.341Z,10.80
2022-12-26T02:43:36.319Z,10.70
2022-12-26T02:44:36.311Z,13.80
2022-12-26T02:45:36.383Z,12.00
2022-12-26T02:46:36.302Z,11.50
2022-12-26T02:47:36.293Z,10.10
2022-12-26T02:48:36.271Z,11.10
2022-12-26T02:49:36.256Z,8.90
2022-12-26T02:50:36.246Z,9.30
2022-12-26T02:51:36.234Z,9.50
2022-12-26T02:52:36.212Z,9.40
2022-12-26T02:53:36.221Z,8.90
2022-12-26T02:54:36.196Z,9.60
2022-12-26T02:55:36.185Z,8.60
2022-12-26T02:56:36.176Z,8.80
2022-12-26T02:57:36.167Z,9.90
2022-12-26T02:58:36.167Z,10.10
2022-12-26T02:59:53.854Z,10.00
2022-12-26T03:00:36.155Z,9.40
2022-12-26T03:01:36.261Z,11.00
2022-12-26T03:02:36.195Z,10.20
2022-12-26T03:03:36.115Z,10.80
2022-12-26T03:04:36.082Z,9.70
2022-12-26T03:05:36.082Z,9.60
2022-12-26T03:06:36.080Z,11.40
2022-12-26T03:07:36.058Z,10.40
2022-12-26T03:08:36.048Z,10.40
2022-12-26T03:09:36.046Z,11.30
2022-12-26T03:10:36.030Z,11.90
2022-12-26T03:11:36.039Z,8.90
2022-12-26T03:12:35.989Z,10.40
2022-12-26T03:13:35.997Z,9.70
2022-12-26T03:14:35.995Z,8.20
2022-12-26T03:15:35.967Z,9.20
2022-12-26T03:16:36.041Z,9.70
2022-12-26T03:17:35.965Z,9.80
2022-12-26T03:18:57.094Z,8.50
2022-12-26T03:19:35.927Z,7.90
2022-12-26T03:20:35.946Z,9.50
2022-12-26T03:21:35.921Z,9.10
2022-12-26T03:22:35.918Z,9.80
2022-12-26T03:23:35.885Z,10.80
2022-12-26T03:24:35.864Z,7.80
2022-12-26T03:25:35.850Z,11.80
2022-12-26T03:26:35.856Z,8.90
2022-12-26T03:27:35.884Z,8.00
2022-12-26T03:28:35.821Z,9.30
2022-12-26T03:29:35.831Z,8.30
2022-12-26T03:30:35.836Z,8.30
2022-12-26T03:31:35.797Z,9.30
2022-12-26T03:32:35.790Z,10.70
2022-12-26T03:33:35.806Z,8.70
2022-12-26T03:34:35.757Z,8.50
2022-12-26T03:35:35.750Z,10.40
2022-12-26T03:36:35.730Z,7.70
2022-12-26T03:37:47.433Z,8.10
2022-12-26T03:38:35.767Z,9.60
2022-12-26T03:39:35.698Z,9.90
2022-12-26T03:40:35.706Z,10.20
2022-12-26T03:41:35.690Z,7.80
2022-12-26T03:42:35.671Z,10.80
2022-12-26T03:43:35.693Z,8.90
2022-12-26T03:44:35.662Z,9.20
2022-12-26T03:45:35.655Z,8.40
2022-12-26T03:46:35.705Z,10.90
2022-12-26T03:47:35.635Z,10.40
2022-12-26T03:48:35.630Z,8.80
2022-12-26T03:49:35.614Z,9.40
2022-12-26T03:50:35.593Z,9.30
2022-12-26T03:51:35.573Z,10.00
2022-12-26T03:52:35.561Z,10.00
2022-12-26T03:53:35.556Z,11.60
2022-12-26T03:54:35.560Z,11.20
2022-12-26T03:55:35.560Z,13.00
2022-12-26T03:56:35.521Z,10.30
2022-12-26T03:57:35.625Z,11.00
2022-12-26T03:58:35.497Z,11.40
2022-12-26T03:59:35.637Z,10.80
2022-12-26T04:00:35.475Z,10.50
2022-12-26T04:01:35.700Z,8.80
2022-12-26T04:02:35.612Z,9.20
2022-12-26T04:03:35.589Z,9.30
2022-12-26T04:04:35.424Z,9.40
2022-12-26T04:05:35.421Z,8.80
2022-12-26T04:06:35.419Z,9.40
2022-12-26T04:07:35.614Z,9.70
2022-12-26T04:08:35.404Z,10.10
2022-12-26T04:09:35.393Z,9.20
2022-12-26T04:10:35.376Z,10.30
2022-12-26T04:11:35.347Z,11.00
2022-12-26T04:12:35.398Z,11.20
2022-12-26T04:13:35.345Z,11.60
2022-12-26T04:14:35.322Z,11.20
2022-12-26T04:15:35.375Z,9.50
2022-12-26T04:16:35.300Z,11.90
2022-12-26T04:17:35.437Z,11.30
2022-12-26T04:18:35.297Z,9.70
2022-12-26T04:19:35.273Z,11.40
2022-12-26T04:20:35.266Z,10.70
2022-12-26T04:21:35.250Z,11.60
2022-12-26T04:22:35.237Z,9.60
2022-12-26T04:23:35.225Z,10.00
2022-12-26T04:24:35.233Z,13.90
2022-12-26T04:25:50.882Z,8.90
2022-12-26T04:26:35.197Z,12.10
2022-12-26T04:27:35.182Z,10.10
2022-12-26T04:28:35.182Z,10.10
2022-12-26T04:29:35.156Z,11.90
2022-12-26T04:30:35.185Z,9.80
2022-12-26T04:31:35.190Z,8.70
2022-12-26T04:32:35.129Z,9.60
2022-12-26T04:33:35.123Z,11.50
2022-12-26T04:34:35.103Z,11.40
2022-12-26T04:35:35.095Z,11.10
2022-12-26T04:36:35.105Z,9.80
2022-12-26T04:37:35.072Z,10.70
2022-12-26T04:38:35.063Z,12.40
2022-12-26T04:39:35.046Z,13.60
2022-12-26T04:40:35.043Z,11.50
2022-12-26T04:41:35.064Z,9.40
2022-12-26T04:42:35.015Z,10.00
2022-12-26T04:43:46.639Z,10.20
2022-12-26T04:44:34.997Z,10.60
2022-12-26T04:45:34.989Z,9.90
2022-12-26T04:46:35.084Z,10.80
2022-12-26T04:47:34.991Z,10.70
2022-12-26T04:48:34.955Z,9.10
2022-12-26T04:49:34.947Z,10.00
2022-12-26T04:50:34.931Z,10.20
2022-12-26T04:51:34.914Z,12.20
2022-12-26T04:52:34.926Z,10.60
2022-12-26T04:53:34.912Z,10.40
2022-12-26T04:54:34.888Z,10.00
2022-12-26T04:55:34.871Z,10.60
2022-12-26T04:56:34.865Z,12.90
2022-12-26T04:57:34.876Z,10.20
2022-12-26T04:58:34.858Z,11.40
2022-12-26T04:59:34.831Z,10.90
2022-12-26T05:00:34.823Z,10.20
2022-12-26T05:01:35.022Z,8.60
2022-12-26T05:02:35.049Z,9.90
2022-12-26T05:03:34.899Z,11.30
2022-12-26T05:04:34.791Z,11.60
2022-12-26T05:05:41.327Z,10.80
2022-12-26T05:06:34.750Z,11.30
2022-12-26T05:07:34.747Z,13.20
2022-12-26T05:08:34.737Z,11.10
2022-12-26T05:09:34.744Z,12.20
2022-12-26T05:10:34.721Z,11.10
2022-12-26T05:11:34.707Z,9.90
2022-12-26T05:12:34.696Z,11.80
2022-12-26T05:13:34.688Z,12.30
2022-12-26T05:14:34.679Z,11.80
2022-12-26T05:15:34.746Z,12.00
2022-12-26T05:16:34.658Z,13.60
2022-12-26T05:17:34.639Z,12.70
2022-12-26T05:18:34.632Z,12.80
2022-12-26T05:19:34.646Z,13.00
2022-12-26T05:20:34.629Z,12.70
2022-12-26T05:21:34.596Z,12.50
2022-12-26T05:22:34.582Z,11.90
2022-12-26T05:23:34.582Z,11.80
2022-12-26T05:24:34.563Z,12.30
2022-12-26T05:25:34.555Z,12.10
2022-12-26T05:26:34.561Z,12.10
2022-12-26T05:27:34.534Z,13.40
2022-12-26T05:28:34.558Z,12.40
2022-12-26T05:29:34.503Z,12.30
2022-12-26T05:30:34.502Z,13.80
2022-12-26T05:31:36.440Z,13.90
2022-12-26T05:32:34.486Z,12.90
2022-12-26T05:33:34.466Z,11.60
2022-12-26T05:34:34.452Z,14.20
2022-12-26T05:35:34.437Z,13.20
2022-12-26T05:36:34.453Z,12.10
2022-12-26T05:37:34.470Z,11.30
2022-12-26T05:38:34.414Z,11.60
2022-12-26T05:39:34.397Z,11.30
2022-12-26T05:40:34.394Z,12.80
2022-12-26T05:41:34.396Z,11.20
2022-12-26T05:42:34.384Z,11.80
2022-12-26T05:43:34.354Z,12.00
2022-12-26T05:44:34.351Z,12.10
2022-12-26T05:45:34.335Z,11.90
2022-12-26T05:46:34.448Z,10.70
2022-12-26T05:47:34.314Z,10.10
2022-12-26T05:48:34.333Z,10.20
2022-12-26T05:49:34.303Z,10.40
2022-12-26T05:50:34.300Z,10.40
2022-12-26T05:51:34.282Z,11.50
2022-12-26T05:52:34.263Z,9.80
2022-12-26T05:53:34.252Z,10.40
2022-12-26T05:54:34.268Z,10.20
2022-12-26T05:55:34.248Z,9.30
2022-12-26T05:56:34.208Z,10.20
2022-12-26T05:57:34.219Z,9.90
2022-12-26T05:58:34.191Z,10.00
2022-12-26T05:59:34.226Z,10.10
2022-12-26T06:00:34.164Z,8.60
2022-12-26T06:01:34.310Z,8.30
2022-12-26T06:02:34.257Z,9.90
2022-12-26T06:03:34.220Z,9.40
2022-12-26T06:04:34.145Z,9.70
2022-12-26T06:05:34.132Z,9.30
2022-12-26T06:06:34.099Z,8.90
2022-12-26T06:07:34.116Z,8.80
2022-12-26T06:08:34.108Z,9.80
2022-12-26T06:09:34.070Z,9.60
2022-12-26T06:10:34.063Z,10.10
2022-12-26T06:11:34.091Z,9.00
2022-12-26T06:12:34.043Z,9.50
2022-12-26T06:13:34.047Z,10.20
2022-12-26T06:14:34.022Z,8.80
2022-12-26T06:15:34.020Z,9.50
2022-12-26T06:16:34.151Z,9.10
2022-12-26T06:17:33.987Z,10.00
2022-12-26T06:18:33.989Z,10.40
2022-12-26T06:19:33.967Z,9.70
2022-12-26T06:20:33.962Z,10.30
2022-12-26T06:21:33.966Z,9.30
2022-12-26T06:22:33.969Z,10.50
2022-12-26T06:23:33.936Z,11.40
2022-12-26T06:24:33.916Z,9.90
2022-12-26T06:25:33.897Z,9.50
2022-12-26T06:26:33.891Z,10.30
2022-12-26T06:27:33.872Z,10.60
2022-12-26T06:28:33.880Z,10.90
2022-12-26T06:29:33.852Z,10.10
2022-12-26T06:30:33.842Z,10.60
2022-12-26T06:31:33.930Z,10.10
2022-12-26T06:32:33.840Z,11.20
2022-12-26T06:33:33.828Z,11.10
2022-12-26T06:34:33.813Z,10.80
2022-12-26T06:35:33.793Z,12.90
2022-12-26T06:36:33.779Z,11.80
2022-12-26T06:37:33.777Z,10.10
2022-12-26T06:38:33.777Z,9.90
2022-12-26T06:39:33.791Z,10.10
2022-12-26T06:40:33.746Z,9.20
2022-12-26T06:41:33.741Z,9.60
2022-12-26T06:42:33.728Z,9.80
2022-12-26T06:43:33.709Z,10.10
2022-12-26T06:44:33.715Z,9.50
2022-12-26T06:45:33.679Z,10.30
2022-12-26T06:46:33.682Z,10.30
2022-12-26T06:47:33.668Z,11.00
2022-12-26T06:48:33.648Z,10.80
2022-12-26T06:49:33.652Z,8.60
2022-12-26T06:50:33.642Z,9.50
2022-12-26T06:51:33.626Z,9.00
2022-12-26T06:52:33.606Z,9.20
2022-12-26T06:53:33.618Z,9.30
2022-12-26T06:54:33.589Z,8.90
2022-12-26T06:55:33.571Z,8.90
2022-12-26T06:56:33.587Z,8.40
2022-12-26T06:57:33.546Z,9.10
2022-12-26T06:58:33.547Z,9.10
2022-12-26T06:59:33.536Z,9.40
2022-12-26T07:00:33.565Z,8.80
2022-12-26T07:01:33.651Z,8.80
2022-12-26T07:02:33.615Z,8.60
2022-12-26T07:03:33.494Z,8.30
2022-12-26T07:04:33.471Z,8.50
2022-12-26T07:05:33.500Z,9.20
2022-12-26T07:06:33.469Z,8.00
2022-12-26T07:07:33.462Z,8.90
2022-12-26T07:08:33.466Z,8.60
2022-12-26T07:09:34.117Z,8.90
2022-12-26T07:10:33.416Z,9.20
2022-12-26T07:11:33.444Z,9.10
2022-12-26T07:12:33.386Z,10.60
2022-12-26T07:13:33.390Z,9.10
2022-12-26T07:14:33.369Z,10.00
2022-12-26T07:15:33.376Z,9.70
2022-12-26T07:16:33.375Z,10.10
2022-12-26T07:17:33.336Z,10.80
2022-12-26T07:18:33.379Z,10.20
2022-12-26T07:19:33.320Z,10.40
2022-12-26T07:20:33.309Z,11.80
2022-12-26T07:21:39.793Z,10.50
2022-12-26T07:22:33.282Z,10.80
2022-12-26T07:23:33.269Z,11.70
2022-12-26T07:24:33.285Z,11.70
2022-12-26T07:25:33.254Z,11.00
2022-12-26T07:26:33.234Z,11.30
2022-12-26T07:27:33.241Z,11.00
2022-12-26T07:28:33.228Z,11.50
2022-12-26T07:29:33.207Z,12.20
2022-12-26T07:30:33.215Z,12.10
2022-12-26T07:31:33.235Z,12.10
2022-12-26T07:32:33.170Z,13.10
2022-12-26T07:33:33.169Z,13.30
2022-12-26T07:34:33.147Z,13.90
2022-12-26T07:35:33.205Z,13.40
2022-12-26T07:36:33.134Z,12.90
2022-12-26T07:37:33.118Z,13.70
2022-12-26T07:38:33.118Z,14.60
2022-12-26T07:39:33.116Z,13.90
2022-12-26T07:40:33.101Z,15.80
2022-12-26T07:41:33.100Z,15.30
2022-12-26T07:42:33.078Z,15.40
2022-12-26T07:43:33.050Z,14.60
2022-12-26T07:44:33.059Z,14.50
2022-12-26T07:45:33.071Z,14.80
2022-12-26T07:46:33.190Z,14.50
2022-12-26T07:47:33.024Z,13.70
2022-12-26T07:48:33.005Z,14.70
2022-12-26T07:49:32.994Z,16.70
2022-12-26T07:50:32.983Z,14.40
2022-12-26T07:51:32.968Z,14.60
2022-12-26T07:52:32.984Z,14.80
2022-12-26T07:53:32.940Z,14.10
2022-12-26T07:54:32.937Z,14.90
2022-12-26T07:55:32.945Z,15.00
2022-12-26T07:56:32.938Z,14.30
2022-12-26T07:57:49.356Z,15.10
2022-12-26T07:58:32.920Z,15.00
2022-12-26T07:59:32.897Z,15.10
2022-12-26T08:00:32.870Z,14.90
2022-12-26T08:01:33.052Z,14.90
2022-12-26T08:02:33.041Z,15.50
2022-12-26T08:03:32.883Z,15.40
2022-12-26T08:04:32.861Z,14.20
2022-12-26T08:05:32.812Z,14.80
2022-12-26T08:06:32.821Z,14.10
2022-12-26T08:07:32.801Z,15.70
2022-12-26T08:08:32.804Z,16.30
2022-12-26T08:09:32.782Z,15.50
2022-12-26T08:10:32.808Z,15.30
2022-12-26T08:11:32.746Z,15.70
2022-12-26T08:12:32.744Z,16.20
2022-12-26T08:13:32.778Z,14.60
2022-12-26T08:14:32.726Z,15.50
2022-12-26T08:15:32.721Z,15.90
2022-12-26T08:16:32.755Z,15.00
2022-12-26T08:17:32.703Z,15.90
2022-12-26T08:18:32.679Z,15.80
2022-12-26T08:19:32.677Z,16.00
2022-12-26T08:20:32.652Z,15.50
2022-12-26T08:21:32.701Z,16.70
2022-12-26T08:22:32.641Z,16.50
2022-12-26T08:23:32.622Z,15.60
2022-12-26T08:24:32.612Z,15.50
2022-12-26T08:25:32.610Z,16.70
2022-12-26T08:26:32.596Z,15.30
2022-12-26T08:27:32.607Z,16.30
2022-12-26T08:28:32.574Z,14.70
2022-12-26T08:29:32.562Z,15.70
2022-12-26T08:30:32.557Z,16.80
2022-12-26T08:31:32.554Z,16.30
2022-12-26T08:32:32.549Z,14.70
2022-12-26T08:33:32.513Z,16.10
2022-12-26T08:34:32.508Z,15.40
2022-12-26T08:35:32.508Z,16.40
2022-12-26T08:36:32.491Z,16.40
2022-12-26T08:37:32.489Z,16.30
2022-12-26T08:38:34.047Z,16.10
2022-12-26T08:39:32.453Z,16.80
2022-12-26T08:40:43.014Z,15.90
2022-12-26T08:41:32.455Z,15.40
2022-12-26T08:42:32.418Z,15.80
2022-12-26T08:43:53.215Z,15.40
2022-12-26T08:44:32.435Z,17.10
2022-12-26T08:45:32.444Z,16.50
2022-12-26T08:46:32.376Z,14.90
2022-12-26T08:47:32.368Z,15.70
2022-12-26T08:48:32.361Z,14.60
2022-12-26T08:49:32.365Z,15.00
2022-12-26T08:50:35.397Z,15.30
2022-12-26T08:51:32.345Z,15.30
2022-12-26T08:52:32.310Z,14.70
2022-12-26T08:53:32.304Z,14.30
2022-12-26T08:54:32.312Z,14.30
2022-12-26T08:55:32.274Z,15.30
2022-12-26T08:56:32.275Z,14.40
2022-12-26T08:57:32.257Z,13.50
2022-12-26T08:58:32.315Z,14.30
2022-12-26T08:59:32.260Z,13.50
2022-12-26T09:00:32.252Z,14.60
2022-12-26T09:01:32.399Z,13.70
2022-12-26T09:02:32.373Z,14.70
2022-12-26T09:03:32.232Z,15.70
2022-12-26T09:04:32.177Z,13.70
2022-12-26T09:05:32.173Z,14.40
2022-12-26T09:06:32.193Z,14.40
2022-12-26T09:07:32.158Z,14.30
2022-12-26T09:08:32.146Z,14.30
2022-12-26T09:09:32.134Z,13.20
2022-12-26T09:10:32.122Z,13.90
2022-12-26T09:11:32.103Z,14.20
2022-12-26T09:12:32.110Z,14.70
2022-12-26T09:13:32.134Z,12.70
2022-12-26T09:14:32.083Z,13.50
2022-12-26T09:15:32.067Z,14.20
2022-12-26T09:16:37.405Z,14.10
2022-12-26T09:17:32.143Z,14.00
2022-12-26T09:18:32.056Z,13.60
2022-12-26T09:19:32.007Z,13.40
2022-12-26T09:20:32.003Z,13.60
2022-12-26T09:21:31.997Z,12.60
2022-12-26T09:22:35.132Z,13.50
2022-12-26T09:23:32.010Z,12.70
2022-12-26T09:24:31.968Z,13.50
2022-12-26T09:25:31.998Z,13.20
2022-12-26T09:26:31.970Z,12.60
2022-12-26T09:27:31.945Z,12.90
2022-12-26T09:28:31.937Z,12.90
2022-12-26T09:29:31.941Z,12.50
2022-12-26T09:30:31.944Z,12.20
2022-12-26T09:31:31.924Z,13.40
2022-12-26T09:32:31.875Z,11.50
2022-12-26T09:33:31.910Z,12.20
2022-12-26T09:34:31.911Z,12.10
2022-12-26T09:35:31.881Z,14.00
2022-12-26T09:36:31.880Z,12.80
2022-12-26T09:37:31.835Z,12.40
2022-12-26T09:38:31.820Z,12.30
2022-12-26T09:39:31.812Z,13.00
2022-12-26T09:40:31.794Z,13.30
2022-12-26T09:41:31.804Z,12.40
2022-12-26T09:42:31.799Z,12.50
2022-12-26T09:43:31.764Z,12.10
2022-12-26T09:44:31.781Z,12.60
2022-12-26T09:45:31.769Z,13.20
2022-12-26T09:46:31.781Z,13.40
2022-12-26T09:47:31.741Z,12.60
2022-12-26T09:48:31.712Z,13.60
2022-12-26T09:49:31.699Z,12.00
2022-12-26T09:50:31.692Z,13.10
2022-12-26T09:51:31.673Z,12.70
2022-12-26T09:52:31.669Z,12.60
2022-12-26T09:53:31.680Z,12.80
2022-12-26T09:54:31.649Z,12.60
2022-12-26T09:55:31.677Z,12.60
2022-12-26T09:57:31.628Z,12.50
2022-12-26T09:58:31.645Z,12.30
2022-12-26T09:59:31.606Z,12.20
2022-12-26T10:00:31.615Z,13.00
2022-12-26T10:01:31.657Z,12.80
2022-12-26T10:02:31.742Z,12.70
2022-12-26T10:03:31.562Z,12.60
2022-12-26T10:04:31.554Z,12.50
2022-12-26T10:05:31.555Z,12.30
2022-12-26T10:06:31.545Z,12.40
2022-12-26T10:07:31.513Z,11.60
2022-12-26T10:08:31.506Z,12.10
2022-12-26T10:09:31.481Z,12.90
2022-12-26T10:10:31.483Z,12.00
2022-12-26T10:11:31.502Z,12.00
2022-12-26T10:12:31.463Z,12.40
2022-12-26T10:13:31.448Z,12.20
2022-12-26T10:14:31.428Z,11.10
2022-12-26T10:15:31.472Z,11.60
2022-12-26T10:16:31.423Z,12.30
2022-12-26T10:17:31.428Z,12.10
2022-12-26T10:18:31.386Z,11.80
2022-12-26T10:19:32.833Z,12.10
2022-12-26T10:20:31.366Z,11.50
2022-12-26T10:21:31.390Z,12.20
2022-12-26T10:22:31.354Z,11.70
2022-12-26T10:23:31.356Z,13.20
2022-12-26T10:24:31.325Z,11.50
2022-12-26T10:25:33.989Z,12.00
2022-12-26T10:26:31.301Z,11.90
2022-12-26T10:27:31.294Z,10.40
2022-12-26T10:28:31.282Z,12.20
2022-12-26T10:29:31.300Z,12.60
2022-12-26T10:30:31.274Z,11.80
2022-12-26T10:31:31.325Z,12.00
2022-12-26T10:32:31.235Z,12.10
2022-12-26T10:33:31.235Z,12.10
2022-12-26T10:34:31.251Z,11.70
2022-12-26T10:35:31.250Z,11.10
2022-12-26T10:36:31.193Z,10.90
2022-12-26T10:37:31.199Z,11.70
2022-12-26T10:38:31.179Z,12.70
2022-12-26T10:39:31.186Z,12.60
2022-12-26T10:40:31.161Z,12.00
2022-12-26T10:41:31.163Z,12.10
2022-12-26T10:42:31.119Z,11.20
2022-12-26T10:43:31.120Z,12.70
2022-12-26T10:44:31.110Z,12.40
2022-12-26T10:45:31.143Z,12.60
2022-12-26T10:46:31.118Z,11.20
2022-12-26T10:47:31.117Z,11.60
2022-12-26T10:48:31.062Z,11.10
2022-12-26T10:49:31.052Z,12.50
2022-12-26T10:50:31.048Z,12.10
2022-12-26T10:51:31.049Z,11.30
2022-12-26T10:52:31.022Z,10.60
2022-12-26T10:53:31.059Z,11.30
2022-12-26T10:54:30.999Z,11.40
2022-12-26T10:55:31.612Z,11.00
2022-12-26T10:56:30.980Z,11.30
2022-12-26T10:57:30.978Z,11.50
2022-12-26T10:58:30.955Z,11.90
2022-12-26T10:59:30.995Z,11.20
2022-12-26T11:00:30.929Z,11.10
2022-12-26T11:01:31.063Z,12.00
2022-12-26T11:02:31.245Z,11.10
2022-12-26T11:03:30.947Z,11.70
2022-12-26T11:05:02.022Z,10.50
2022-12-26T11:06:30.876Z,10.70
2022-12-26T11:07:30.859Z,10.10
2022-12-26T11:08:42.985Z,11.10
2022-12-26T11:09:30.834Z,11.10
2022-12-26T11:10:30.823Z,11.10
2022-12-26T11:11:30.849Z,10.00
2022-12-26T11:12:30.802Z,10.50
2022-12-26T11:13:30.788Z,11.10
2022-12-26T11:14:33.777Z,10.90
2022-12-26T11:15:30.763Z,11.00
2022-12-26T11:16:30.772Z,10.60
2022-12-26T11:17:30.766Z,10.40
2022-12-26T11:18:30.738Z,10.30
2022-12-26T11:19:30.723Z,9.80
2022-12-26T11:20:30.732Z,10.00
2022-12-26T11:21:30.719Z,10.50
2022-12-26T11:22:30.687Z,9.90
2022-12-26T11:23:30.725Z,9.70
2022-12-26T11:24:30.682Z,9.90
2022-12-26T11:25:30.663Z,10.00
2022-12-26T11:26:30.656Z,10.50
2022-12-26T11:27:30.640Z,10.10
2022-12-26T11:28:30.640Z,10.10
2022-12-26T11:29:30.636Z,10.00
2022-12-26T11:30:30.603Z,10.30
2022-12-26T11:31:30.636Z,10.30
2022-12-26T11:32:30.590Z,9.40
2022-12-26T11:33:30.579Z,9.70
2022-12-26T11:34:30.571Z,9.80
2022-12-26T11:35:30.561Z,9.60
2022-12-26T11:36:30.545Z,9.10
2022-12-26T11:37:30.537Z,9.10
2022-12-26T11:38:30.523Z,9.20
2022-12-26T11:39:30.507Z,9.60
2022-12-26T11:40:30.510Z,9.70
2022-12-26T11:41:30.499Z,9.60
2022-12-26T11:42:30.472Z,9.30
2022-12-26T11:43:30.452Z,9.60
2022-12-26T11:44:30.454Z,10.00
2022-12-26T11:45:35.466Z,9.70
2022-12-26T11:46:30.583Z,9.10
2022-12-26T11:47:30.434Z,9.10
2022-12-26T11:48:30.405Z,9.10
2022-12-26T11:49:30.398Z,8.10
2022-12-26T11:50:30.395Z,9.40
2022-12-26T11:51:30.381Z,10.10
2022-12-26T11:52:30.368Z,8.70
2022-12-26T11:53:30.375Z,9.20
2022-12-26T11:54:30.348Z,9.50
2022-12-26T11:55:30.349Z,8.50
2022-12-26T11:56:30.347Z,9.20
2022-12-26T11:57:30.321Z,9.10
2022-12-26T11:58:30.292Z,9.20
2022-12-26T11:59:30.339Z,8.60
2022-12-26T12:00:30.298Z,8.80
2022-12-26T12:01:30.309Z,9.40
2022-12-26T12:02:30.307Z,8.90
2022-12-26T12:03:30.283Z,9.20
2022-12-26T12:04:30.264Z,9.50
2022-12-26T12:05:30.245Z,8.70
2022-12-26T12:06:30.269Z,9.00
2022-12-26T12:07:30.835Z,8.80
2022-12-26T12:08:30.186Z,9.30
2022-12-26T12:09:30.180Z,8.50
2022-12-26T12:10:30.160Z,9.20
2022-12-26T12:11:30.172Z,9.10
2022-12-26T12:12:30.139Z,9.40
2022-12-26T12:13:30.134Z,9.10
2022-12-26T12:14:30.119Z,9.50
2022-12-26T12:15:30.119Z,9.40
2022-12-26T12:16:30.267Z,9.30
2022-12-26T12:17:30.127Z,8.30
2022-12-26T12:18:30.069Z,8.70
2022-12-26T12:19:30.113Z,8.90
2022-12-26T12:20:30.059Z,8.60
2022-12-26T12:21:30.037Z,9.40
2022-12-26T12:22:30.027Z,8.60
2022-12-26T12:23:30.038Z,8.50
2022-12-26T12:24:30.004Z,8.10
2022-12-26T12:25:29.993Z,8.30
2022-12-26T12:26:29.981Z,8.30
2022-12-26T12:27:29.977Z,8.20
2022-12-26T12:28:29.963Z,8.40
2022-12-26T12:29:29.966Z,7.80
2022-12-26T12:30:29.940Z,7.30
2022-12-26T12:31:29.979Z,7.80
2022-12-26T12:32:29.920Z,7.90
2022-12-26T12:33:29.916Z,7.50
2022-12-26T12:34:29.900Z,8.00
2022-12-26T12:35:29.910Z,7.50
2022-12-26T12:36:29.887Z,8.50
2022-12-26T12:37:29.864Z,6.90
2022-12-26T12:38:29.850Z,7.50
2022-12-26T12:39:29.838Z,7.70
2022-12-26T12:40:29.824Z,7.90
2022-12-26T12:41:29.843Z,7.30
2022-12-26T12:42:29.807Z,7.30
2022-12-26T12:43:29.794Z,7.60
2022-12-26T12:44:29.786Z,7.50
2022-12-26T12:45:29.809Z,7.20
2022-12-26T12:46:29.786Z,8.10
2022-12-26T12:47:29.766Z,7.80
2022-12-26T12:48:29.751Z,7.70
2022-12-26T12:49:29.754Z,7.10
2022-12-26T12:50:29.746Z,6.90
2022-12-26T12:51:29.730Z,6.90
2022-12-26T12:52:29.686Z,7.20
2022-12-26T12:53:29.696Z,7.60
2022-12-26T12:54:29.681Z,6.70
2022-12-26T12:55:29.654Z,7.20
2022-12-26T12:56:29.654Z,6.70
2022-12-26T12:57:29.635Z,7.00
2022-12-26T12:58:29.638Z,6.30
2022-12-26T12:59:29.632Z,7.60
2022-12-26T13:00:29.615Z,6.50
2022-12-26T13:01:29.753Z,6.80
2022-12-26T13:02:29.660Z,6.20